Yang Mei Hu — BQCG — position and weather

sailwx.info

Track history (hours):
 
Tides and Currents Weather Stations Pressure Air Temp Water Temp Dewpoint Dewpoint Depression Visibility Wind Speed Wind Dir Waves Ship Positions

Yang Mei Hu

Last reported at 2014-Sep-16 15:05 UTC. Time now 2014-Sep-17 11:40 UTC.
Position N 37°45' E 024°34'.

Length 245 m; draft 9 m.

Type: Tanker. MMSI: 413858000.

Date/timePositionNaut miles runAvg speedWind from/ knotsBaromVisibWave heightAir tempDewpointWater temp
2014-Sep-16 15:05N 37°45' E 024°34'5 7.9
2014-Sep-16 14:28N 37°40' E 024°32'8 8.0
2014-Sep-16 13:30N 37°34' E 024°27'9 7.9
2014-Sep-16 12:18N 37°26' E 024°19'6 8.1
2014-Sep-16 11:33N 37°21' E 024°14'9 8.3
2014-Sep-16 10:29N 37°15' E 024°07'8 7.8
2014-Sep-16 09:26N 37°08' E 024°02'8 7.8
2014-Sep-16 08:23N 37°01' E 023°56'15 8.0
2014-Sep-16 06:33N 36°50' E 023°44'412 8.3
2014-Sep-14 05:12N 36°20' E 015°12'5 8.4
2014-Sep-14 04:33N 36°20' E 015°06'18 8.8
2014-Sep-14 02:32N 36°20' E 014°44'46 9.2
2014-Sep-13 21:33N 36°26' E 013°47'9 9.5
2014-Sep-13 20:33N 36°29' E 013°36'93 8.9
2014-Sep-13 10:09N 37°05' E 011°49'7 8.4
2014-Sep-13 09:22N 37°08' E 011°42'125 8.9
2014-Sep-12 19:24N 38°10' E 009°25'18 8.9
2014-Sep-12 17:20N 38°19' E 009°04'28 9.1
2014-Sep-12 14:16N 38°32' E 008°33'119 9.1
2014-Sep-12 01:09N 40°11' E 007°07'5 8.7
2014-Sep-12 00:33N 40°16' E 007°04'9 8.7
2014-Sep-11 23:33N 40°24' E 006°58'30 8.9
2014-Sep-11 20:13N 40°50' E 006°40'6 9.0
2014-Sep-11 19:32N 40°55' E 006°37'12 8.8
2014-Sep-11 18:11N 41°06' E 006°29'50 9.0
2014-Sep-11 12:33N 41°51' E 005°58'10 9.1
2014-Sep-11 11:27N 41°59' E 005°52'8 8.8
2014-Sep-11 10:33N 42°07' E 005°47'9 9.0
2014-Sep-11 09:33N 42°14' E 005°41'9 8.8
2014-Sep-11 08:33N 42°22' E 005°36'9 8.9
2014-Sep-11 07:33N 42°30' E 005°31'9 8.8
2014-Sep-11 06:33N 42°38' E 005°25'9 8.5
2014-Sep-11 05:27N 42°46' E 005°19'7 8.1
2014-Sep-11 04:33N 42°53' E 005°14'9 8.8
2014-Sep-11 03:30N 43°01' E 005°09'8 8.7
2014-Sep-11 02:33N 43°08' E 005°04'9 8.6
2014-Sep-11 01:33N 43°16' E 004°60'8 8.2
2014-Sep-11 00:33N 43°24' E 004°55'2 1.6
2014-Sep-10 23:32N 43°25' E 004°53'0 0.0
2014-Sep-10 22:32N 43°25' E 004°53'0 0.0
2014-Sep-10 21:29N 43°25' E 004°53'0 0.0
2014-Sep-10 20:32N 43°25' E 004°53'0 0.0
2014-Sep-10 19:32N 43°25' E 004°53'0 0.0
2014-Sep-10 18:32N 43°25' E 004°53'0 0.0
2014-Sep-10 17:32N 43°25' E 004°53'0 0.0
2014-Sep-10 16:32N 43°25' E 004°53'0 0.0
2014-Sep-10 15:29N 43°25' E 004°53'0 0.0
2014-Sep-10 14:32N 43°25' E 004°53'0 0.0
2014-Sep-10 13:32N 43°25' E 004°53'0 0.0
2014-Sep-10 12:32N 43°25' E 004°53'0 0.0
2014-Sep-10 11:32N 43°25' E 004°53'0 0.0
2014-Sep-10 10:32N 43°25' E 004°53'0 0.0
2014-Sep-10 09:32N 43°25' E 004°53'0 0.0
2014-Sep-10 08:32N 43°25' E 004°53'0 0.0
2014-Sep-10 07:32N 43°25' E 004°53'0 0.0
2014-Sep-10 06:29N 43°25' E 004°53'0 0.0
2014-Sep-10 05:32N 43°25' E 004°53'0 0.0
2014-Sep-10 04:29N 43°25' E 004°53'0 0.0
2014-Sep-10 03:32N 43°25' E 004°53'0 0.0
2014-Sep-10 02:32N 43°25' E 004°53'0 0.0
2014-Sep-10 01:29N 43°25' E 004°53'0 0.0
2014-Sep-10 00:32N 43°25' E 004°53'0 0.0
2014-Sep-09 23:32N 43°25' E 004°53'0 0.0
2014-Sep-09 22:32N 43°25' E 004°53'0 0.0
2014-Sep-09 21:32N 43°25' E 004°53'0 0.0
2014-Sep-09 20:32N 43°25' E 004°53'0 0.0
2014-Sep-09 19:32N 43°25' E 004°53'0 0.0
2014-Sep-09 18:32N 43°25' E 004°53'0 0.0
2014-Sep-09 17:32N 43°25' E 004°53'3 3.3
2014-Sep-09 16:34N 43°23' E 004°57'3 3.1
2014-Sep-09 15:31N 43°21' E 004°60'0 0.0
2014-Sep-09 14:31N 43°21' E 004°60'0 0.0
2014-Sep-09 13:31N 43°21' E 004°60'0 0.0
2014-Sep-09 12:31N 43°21' E 004°60'0 0.0
2014-Sep-09 11:31N 43°21' E 004°60'0 0.0
2014-Sep-09 10:31N 43°21' E 004°60'0 0.0
2014-Sep-09 09:31N 43°21' E 004°60'0 0.0
2014-Sep-09 08:31N 43°21' E 004°60'0 0.0
2014-Sep-09 07:31N 43°21' E 004°60'0 0.0
2014-Sep-09 06:31N 43°21' E 004°60'0 0.0
2014-Sep-09 05:31N 43°21' E 004°60'0 0.0
2014-Sep-09 04:31N 43°21' E 004°60'0 0.0
2014-Sep-09 03:31N 43°21' E 004°60'0 0.0
2014-Sep-09 02:31N 43°21' E 004°60'0 0.0
2014-Sep-09 01:31N 43°21' E 004°60'0 0.0
2014-Sep-09 00:31N 43°21' E 004°60'0 0.0
2014-Sep-08 23:31N 43°21' E 004°60'0 0.0
2014-Sep-08 22:31N 43°21' E 004°60'0 0.0
2014-Sep-08 21:31N 43°21' E 004°60'0 0.1
2014-Sep-08 20:31N 43°21' E 004°60'0 0.1
2014-Sep-08 19:31N 43°21' E 004°60'0 0.0
2014-Sep-08 18:31N 43°21' E 004°60'0 0.0
2014-Sep-08 17:31N 43°21' E 004°60'0 0.0
2014-Sep-08 16:31N 43°21' E 004°60'0 0.0
2014-Sep-08 15:31N 43°21' E 004°60'0 0.0
2014-Sep-08 14:31N 43°21' E 004°60'0 0.0
2014-Sep-08 13:31N 43°21' E 004°60'0 0.0
2014-Sep-08 12:31N 43°21' E 004°60'0 0.0
2014-Sep-08 11:31N 43°21' E 004°60'0 0.0
2014-Sep-08 10:31N 43°21' E 004°60'0 0.0
2014-Sep-08 09:31N 43°21' E 004°60'0 0.0
2014-Sep-08 08:31N 43°21' E 004°60'0 0.0
2014-Sep-08 07:31N 43°21' E 004°60'0 0.0
2014-Sep-08 06:31N 43°21' E 004°60'0 0.0
2014-Sep-08 05:28N 43°21' E 004°60'0 0.0
2014-Sep-08 04:31N 43°21' E 004°60'0 0.0
2014-Sep-08 03:31N 43°21' E 004°60'0 0.0
2014-Sep-08 02:31N 43°21' E 004°60'0 0.0
2014-Sep-08 01:31N 43°21' E 004°60'0 0.0
2014-Sep-08 00:31N 43°21' E 004°60'0 0.0
2014-Sep-07 23:31N 43°21' E 004°60'0 0.0
2014-Sep-07 22:28N 43°21' E 004°60'0 0.0
2014-Sep-07 21:31N 43°21' E 004°60'0 0.0
2014-Sep-07 20:31N 43°21' E 004°60'0 0.0
2014-Sep-07 19:31N 43°21' E 004°60'0 0.0
2014-Sep-07 18:31N 43°21' E 004°60'0 0.0
2014-Sep-07 17:31N 43°21' E 004°60'0 0.0
2014-Sep-07 16:31N 43°21' E 004°60'0 0.0
2014-Sep-07 15:31N 43°21' E 004°60'0 0.0
2014-Sep-07 14:31N 43°21' E 004°60'0 0.0
2014-Sep-07 13:31N 43°21' E 004°60'0 0.0
2014-Sep-07 12:31N 43°21' E 004°60'0 0.0
2014-Sep-07 11:31N 43°21' E 004°60'0 0.0
2014-Sep-07 10:31N 43°21' E 004°60'0 0.0
2014-Sep-07 09:31N 43°21' E 004°60'0 0.0
2014-Sep-07 08:31N 43°21' E 004°60'0 0.0
2014-Sep-07 07:31N 43°21' E 004°60'0 0.1
2014-Sep-07 06:31N 43°21' E 004°60'0 0.0
2014-Sep-07 05:31N 43°21' E 004°60'0 0.0
2014-Sep-07 04:31N 43°21' E 004°60'0 0.0
2014-Sep-07 03:31N 43°21' E 004°60'0 0.0
2014-Sep-07 02:31N 43°21' E 004°60'0 0.0
2014-Sep-07 01:31N 43°21' E 004°60'0 0.1
2014-Sep-07 00:31N 43°21' E 004°60'0 0.1
2014-Sep-06 23:33N 43°21' E 004°60'2 1.6
2014-Sep-06 22:33N 43°19' E 004°59'8 8.0
2014-Sep-06 21:33N 43°11' E 005°03'1110.1
2014-Sep-06 20:30N 43°03' E 004°55'1111.3
2014-Sep-06 19:33N 42°54' E 004°46'1111.1
2014-Sep-06 18:33N 42°45' E 004°36'1311.1
2014-Sep-06 17:25N 42°35' E 004°26'1211.2
2014-Sep-06 16:23N 42°26' E 004°17'1011.3
2014-Sep-06 15:31N 42°18' E 004°09'  
Track history (hours):
 
Tides and Currents Weather Stations Pressure Air Temp Water Temp Dewpoint Dewpoint Depression Visibility Wind Speed Wind Dir Waves Ship Positions

Yang Mei Hu

Last reported at 2014-Sep-16 15:05 UTC. Time now 2014-Sep-17 11:40 UTC.
Position N 37°45' E 024°34'.

Length 245 m; draft 9 m.

Type: Tanker. MMSI: 413858000.

Date/timePositionNaut miles runAvg speedWind from/ knotsBaromVisibWave heightAir tempDewpointWater temp
2014-Sep-16 15:05N 37°45' E 024°34'5 7.9
2014-Sep-16 14:28N 37°40' E 024°32'8 8.0
2014-Sep-16 13:30N 37°34' E 024°27'9 7.9
2014-Sep-16 12:18N 37°26' E 024°19'6 8.1
2014-Sep-16 11:33N 37°21' E 024°14'9 8.3
2014-Sep-16 10:29N 37°15' E 024°07'8 7.8
2014-Sep-16 09:26N 37°08' E 024°02'8 7.8
2014-Sep-16 08:23N 37°01' E 023°56'15 8.0
2014-Sep-16 06:33N 36°50' E 023°44'412 8.3
2014-Sep-14 05:12N 36°20' E 015°12'5 8.4
2014-Sep-14 04:33N 36°20' E 015°06'18 8.8
2014-Sep-14 02:32N 36°20' E 014°44'46 9.2
2014-Sep-13 21:33N 36°26' E 013°47'9 9.5
2014-Sep-13 20:33N 36°29' E 013°36'93 8.9
2014-Sep-13 10:09N 37°05' E 011°49'7 8.4
2014-Sep-13 09:22N 37°08' E 011°42'125 8.9
2014-Sep-12 19:24N 38°10' E 009°25'18 8.9
2014-Sep-12 17:20N 38°19' E 009°04'28 9.1
2014-Sep-12 14:16N 38°32' E 008°33'119 9.1
2014-Sep-12 01:09N 40°11' E 007°07'5 8.7
2014-Sep-12 00:33N 40°16' E 007°04'9 8.7
2014-Sep-11 23:33N 40°24' E 006°58'30 8.9
2014-Sep-11 20:13N 40°50' E 006°40'6 9.0
2014-Sep-11 19:32N 40°55' E 006°37'12 8.8
2014-Sep-11 18:11N 41°06' E 006°29'50 9.0
2014-Sep-11 12:33N 41°51' E 005°58'10 9.1
2014-Sep-11 11:27N 41°59' E 005°52'8 8.8
2014-Sep-11 10:33N 42°07' E 005°47'9 9.0
2014-Sep-11 09:33N 42°14' E 005°41'9 8.8
2014-Sep-11 08:33N 42°22' E 005°36'9 8.9
2014-Sep-11 07:33N 42°30' E 005°31'9 8.8
2014-Sep-11 06:33N 42°38' E 005°25'9 8.5
2014-Sep-11 05:27N 42°46' E 005°19'7 8.1
2014-Sep-11 04:33N 42°53' E 005°14'9 8.8
2014-Sep-11 03:30N 43°01' E 005°09'8 8.7
2014-Sep-11 02:33N 43°08' E 005°04'9 8.6
2014-Sep-11 01:33N 43°16' E 004°60'8 8.2
2014-Sep-11 00:33N 43°24' E 004°55'2 1.6
2014-Sep-10 23:32N 43°25' E 004°53'0 0.0
2014-Sep-10 22:32N 43°25' E 004°53'0 0.0
2014-Sep-10 21:29N 43°25' E 004°53'0 0.0
2014-Sep-10 20:32N 43°25' E 004°53'0 0.0
2014-Sep-10 19:32N 43°25' E 004°53'0 0.0
2014-Sep-10 18:32N 43°25' E 004°53'0 0.0
2014-Sep-10 17:32N 43°25' E 004°53'0 0.0
2014-Sep-10 16:32N 43°25' E 004°53'0 0.0
2014-Sep-10 15:29N 43°25' E 004°53'0 0.0
2014-Sep-10 14:32N 43°25' E 004°53'0 0.0
2014-Sep-10 13:32N 43°25' E 004°53'0 0.0
2014-Sep-10 12:32N 43°25' E 004°53'0 0.0
2014-Sep-10 11:32N 43°25' E 004°53'0 0.0
2014-Sep-10 10:32N 43°25' E 004°53'0 0.0
2014-Sep-10 09:32N 43°25' E 004°53'0 0.0
2014-Sep-10 08:32N 43°25' E 004°53'0 0.0
2014-Sep-10 07:32N 43°25' E 004°53'0 0.0
2014-Sep-10 06:29N 43°25' E 004°53'0 0.0
2014-Sep-10 05:32N 43°25' E 004°53'0 0.0
2014-Sep-10 04:29N 43°25' E 004°53'0 0.0
2014-Sep-10 03:32N 43°25' E 004°53'0 0.0
2014-Sep-10 02:32N 43°25' E 004°53'0 0.0
2014-Sep-10 01:29N 43°25' E 004°53'0 0.0
2014-Sep-10 00:32N 43°25' E 004°53'0 0.0
2014-Sep-09 23:32N 43°25' E 004°53'0 0.0
2014-Sep-09 22:32N 43°25' E 004°53'0 0.0
2014-Sep-09 21:32N 43°25' E 004°53'0 0.0
2014-Sep-09 20:32N 43°25' E 004°53'0 0.0
2014-Sep-09 19:32N 43°25' E 004°53'0 0.0
2014-Sep-09 18:32N 43°25' E 004°53'0 0.0
2014-Sep-09 17:32N 43°25' E 004°53'3 3.3
2014-Sep-09 16:34N 43°23' E 004°57'3 3.1
2014-Sep-09 15:31N 43°21' E 004°60'0 0.0
2014-Sep-09 14:31N 43°21' E 004°60'0 0.0
2014-Sep-09 13:31N 43°21' E 004°60'0 0.0
2014-Sep-09 12:31N 43°21' E 004°60'0 0.0
2014-Sep-09 11:31N 43°21' E 004°60'0 0.0
2014-Sep-09 10:31N 43°21' E 004°60'0 0.0
2014-Sep-09 09:31N 43°21' E 004°60'0 0.0
2014-Sep-09 08:31N 43°21' E 004°60'0 0.0
2014-Sep-09 07:31N 43°21' E 004°60'0 0.0
2014-Sep-09 06:31N 43°21' E 004°60'0 0.0
2014-Sep-09 05:31N 43°21' E 004°60'0 0.0
2014-Sep-09 04:31N 43°21' E 004°60'0 0.0
2014-Sep-09 03:31N 43°21' E 004°60'0 0.0
2014-Sep-09 02:31N 43°21' E 004°60'0 0.0
2014-Sep-09 01:31N 43°21' E 004°60'0 0.0
2014-Sep-09 00:31N 43°21' E 004°60'0 0.0
2014-Sep-08 23:31N 43°21' E 004°60'0 0.0
2014-Sep-08 22:31N 43°21' E 004°60'0 0.0
2014-Sep-08 21:31N 43°21' E 004°60'0 0.1
2014-Sep-08 20:31N 43°21' E 004°60'0 0.1
2014-Sep-08 19:31N 43°21' E 004°60'0 0.0
2014-Sep-08 18:31N 43°21' E 004°60'0 0.0
2014-Sep-08 17:31N 43°21' E 004°60'0 0.0
2014-Sep-08 16:31N 43°21' E 004°60'0 0.0
2014-Sep-08 15:31N 43°21' E 004°60'0 0.0
2014-Sep-08 14:31N 43°21' E 004°60'0 0.0
2014-Sep-08 13:31N 43°21' E 004°60'0 0.0
2014-Sep-08 12:31N 43°21' E 004°60'0 0.0
2014-Sep-08 11:31N 43°21' E 004°60'0 0.0
2014-Sep-08 10:31N 43°21' E 004°60'0 0.0
2014-Sep-08 09:31N 43°21' E 004°60'0 0.0
2014-Sep-08 08:31N 43°21' E 004°60'0 0.0
2014-Sep-08 07:31N 43°21' E 004°60'0 0.0
2014-Sep-08 06:31N 43°21' E 004°60'0 0.0
2014-Sep-08 05:28N 43°21' E 004°60'0 0.0
2014-Sep-08 04:31N 43°21' E 004°60'0 0.0
2014-Sep-08 03:31N 43°21' E 004°60'0 0.0
2014-Sep-08 02:31N 43°21' E 004°60'0 0.0
2014-Sep-08 01:31N 43°21' E 004°60'0 0.0
2014-Sep-08 00:31N 43°21' E 004°60'0 0.0
2014-Sep-07 23:31N 43°21' E 004°60'0 0.0
2014-Sep-07 22:28N 43°21' E 004°60'0 0.0
2014-Sep-07 21:31N 43°21' E 004°60'0 0.0
2014-Sep-07 20:31N 43°21' E 004°60'0 0.0
2014-Sep-07 19:31N 43°21' E 004°60'0 0.0
2014-Sep-07 18:31N 43°21' E 004°60'0 0.0
2014-Sep-07 17:31N 43°21' E 004°60'0 0.0
2014-Sep-07 16:31N 43°21' E 004°60'0 0.0
2014-Sep-07 15:31N 43°21' E 004°60'0 0.0
2014-Sep-07 14:31N 43°21' E 004°60'0 0.0
2014-Sep-07 13:31N 43°21' E 004°60'0 0.0
2014-Sep-07 12:31N 43°21' E 004°60'0 0.0
2014-Sep-07 11:31N 43°21' E 004°60'0 0.0
2014-Sep-07 10:31N 43°21' E 004°60'0 0.0
2014-Sep-07 09:31N 43°21' E 004°60'0 0.0
2014-Sep-07 08:31N 43°21' E 004°60'0 0.0
2014-Sep-07 07:31N 43°21' E 004°60'0 0.1
2014-Sep-07 06:31N 43°21' E 004°60'0 0.0
2014-Sep-07 05:31N 43°21' E 004°60'0 0.0
2014-Sep-07 04:31N 43°21' E 004°60'0 0.0
2014-Sep-07 03:31N 43°21' E 004°60'0 0.0
2014-Sep-07 02:31N 43°21' E 004°60'0 0.0
2014-Sep-07 01:31N 43°21' E 004°60'0 0.1
2014-Sep-07 00:31N 43°21' E 004°60'0 0.1
2014-Sep-06 23:33N 43°21' E 004°60'2 1.6
2014-Sep-06 22:33N 43°19' E 004°59'8 8.0
2014-Sep-06 21:33N 43°11' E 005°03'1110.1
2014-Sep-06 20:30N 43°03' E 004°55'1111.3
2014-Sep-06 19:33N 42°54' E 004°46'1111.1
2014-Sep-06 18:33N 42°45' E 004°36'1311.1
2014-Sep-06 17:25N 42°35' E 004°26'1211.2
2014-Sep-06 16:23N 42°26' E 004°17'1011.3
2014-Sep-06 15:31N 42°18' E 004°09'  

Dump ship's entire track history